createdAt,value
2018-10-09T00:01:49.468Z,12.80
2018-10-09T00:06:53.476Z,12.80
2018-10-09T00:11:57.476Z,12.40
2018-10-09T00:17:01.544Z,11.60
2018-10-09T00:22:05.564Z,11.00
2018-10-09T00:27:09.578Z,10.30
2018-10-09T00:32:13.563Z,11.00
2018-10-09T00:37:17.580Z,11.60
2018-10-09T00:42:21.587Z,12.00
2018-10-09T00:47:25.677Z,12.20
2018-10-09T00:52:29.819Z,12.50
2018-10-09T00:57:33.856Z,12.60
2018-10-09T01:02:37.863Z,11.80
2018-10-09T01:07:41.863Z,11.40
2018-10-09T01:12:45.873Z,11.40
2018-10-09T01:17:49.868Z,11.30
2018-10-09T01:22:53.872Z,11.40
2018-10-09T01:27:57.886Z,11.40
2018-10-09T01:33:02.497Z,11.10
2018-10-09T01:38:06.512Z,11.30
2018-10-09T01:43:10.508Z,11.80
2018-10-09T01:48:14.507Z,12.00
2018-10-09T01:53:18.487Z,12.20
2018-10-09T01:58:22.511Z,12.30
2018-10-09T02:03:26.535Z,12.20
2018-10-09T02:08:30.539Z,11.10
2018-10-09T02:13:34.632Z,10.20
2018-10-09T02:18:38.631Z,10.00
2018-10-09T02:23:42.623Z,9.90
2018-10-09T02:28:46.628Z,9.80
2018-10-09T02:33:50.634Z,9.90
2018-10-09T02:38:54.649Z,9.80
2018-10-09T02:43:58.600Z,9.10
2018-10-09T02:49:02.581Z,9.00
2018-10-09T02:54:06.887Z,8.80
2018-10-09T02:59:10.908Z,8.80
2018-10-09T03:04:14.952Z,9.00
2018-10-09T03:09:18.965Z,9.10
2018-10-09T03:14:22.945Z,9.40
2018-10-09T03:19:26.913Z,10.30
2018-10-09T03:24:30.928Z,10.40
2018-10-09T03:29:34.952Z,10.40
2018-10-09T03:34:38.976Z,10.40
2018-10-09T03:39:42.973Z,10.30
2018-10-09T03:44:46.956Z,10.30
2018-10-09T03:49:51.068Z,10.30
2018-10-09T03:54:55.086Z,9.50
2018-10-09T03:59:59.137Z,9.20
2018-10-09T04:05:03.111Z,9.70
2018-10-09T04:10:07.956Z,9.80
2018-10-09T04:15:11.959Z,9.70
2018-10-09T04:20:15.972Z,8.80
2018-10-09T04:25:19.984Z,8.80
2018-10-09T04:30:23.988Z,9.20
2018-10-09T04:35:28.062Z,9.50
2018-10-09T04:40:32.059Z,10.00
2018-10-09T04:45:36.086Z,9.90
2018-10-09T04:50:40.108Z,10.40
2018-10-09T04:55:44.128Z,10.60
2018-10-09T05:00:48.156Z,10.90
2018-10-09T05:05:52.152Z,11.20
2018-10-09T05:10:56.146Z,10.80
2018-10-09T05:16:01.264Z,10.40
2018-10-09T05:21:05.264Z,10.90
2018-10-09T05:26:09.336Z,11.10
2018-10-09T05:31:13.462Z,11.40
2018-10-09T05:36:17.432Z,11.50
2018-10-09T05:41:21.432Z,11.50
2018-10-09T05:46:25.471Z,11.60
2018-10-09T05:51:29.482Z,11.60
2018-10-09T05:56:33.522Z,11.60
2018-10-09T06:01:37.522Z,11.60
2018-10-09T06:06:41.539Z,11.40
2018-10-09T06:11:45.568Z,11.10
2018-10-09T06:16:49.591Z,11.20
2018-10-09T06:21:53.576Z,11.40
2018-10-09T06:26:57.567Z,11.40
2018-10-09T06:32:01.640Z,10.60
2018-10-09T06:37:05.794Z,10.50
2018-10-09T06:42:09.775Z,10.60
2018-10-09T06:47:13.866Z,10.40
2018-10-09T06:52:17.856Z,10.60
2018-10-09T06:57:21.875Z,10.90
2018-10-09T07:02:25.895Z,11.30
2018-10-09T07:07:29.976Z,11.70
2018-10-09T07:12:33.979Z,12.80
2018-10-09T07:17:38.022Z,13.60
2018-10-09T07:22:42.037Z,14.00
2018-10-09T07:27:46.034Z,14.10
2018-10-09T07:32:50.042Z,14.10
2018-10-09T07:37:54.076Z,14.00
2018-10-09T07:42:58.135Z,13.90
2018-10-09T07:48:02.203Z,13.70
2018-10-09T07:53:06.255Z,14.00
2018-10-09T07:58:10.380Z,14.30
2018-10-09T08:03:14.428Z,14.70
2018-10-09T08:08:18.473Z,14.80
2018-10-09T08:13:22.497Z,14.90
2018-10-09T08:18:26.524Z,14.40
2018-10-09T08:23:30.600Z,15.00
2018-10-09T08:28:34.604Z,15.20
2018-10-09T08:33:38.628Z,15.50
2018-10-09T08:38:42.668Z,16.70
2018-10-09T08:43:46.685Z,17.30
2018-10-09T08:48:50.707Z,16.40
2018-10-09T08:53:54.723Z,16.30
2018-10-09T08:58:58.755Z,18.00
2018-10-09T09:04:02.814Z,17.30
2018-10-09T09:09:08.868Z,16.50
2018-10-09T09:14:12.874Z,16.50
2018-10-09T09:19:16.945Z,15.60
2018-10-09T09:24:20.956Z,15.00
2018-10-09T09:29:25.133Z,16.10
2018-10-09T09:34:29.292Z,16.90
2018-10-09T09:39:33.430Z,17.00
2018-10-09T09:44:37.553Z,18.70
2018-10-09T09:49:41.598Z,18.40
2018-10-09T09:54:45.637Z,20.80
2018-10-09T09:59:49.724Z,20.50
2018-10-09T10:04:53.779Z,21.80
2018-10-09T10:09:57.889Z,22.50
2018-10-09T10:15:01.974Z,20.90
2018-10-09T10:20:06.064Z,20.20
2018-10-09T10:25:10.151Z,20.30
2018-10-09T10:30:14.233Z,21.40
2018-10-09T10:35:18.769Z,21.50
2018-10-09T10:40:22.988Z,22.90
2018-10-09T10:45:27.130Z,23.70
2018-10-09T10:50:31.240Z,23.60
2018-10-09T10:55:35.267Z,23.50
2018-10-09T11:00:39.333Z,24.50
2018-10-09T11:05:43.427Z,23.90
2018-10-09T11:10:47.460Z,26.00
2018-10-09T11:15:51.530Z,26.80
2018-10-09T11:20:55.604Z,27.70
2018-10-09T11:25:59.660Z,28.40
2018-10-09T11:31:03.728Z,28.70
2018-10-09T11:36:07.851Z,28.00
2018-10-09T11:41:11.941Z,28.50
2018-10-09T11:46:15.965Z,27.80
2018-10-09T11:51:20.669Z,24.90
2018-10-09T11:56:24.720Z,26.20
2018-10-09T12:01:28.803Z,26.20
2018-10-09T12:06:32.931Z,27.60
2018-10-09T12:11:36.971Z,26.90
2018-10-09T12:16:41.251Z,27.20
2018-10-09T12:21:45.411Z,28.30
2018-10-09T12:26:49.446Z,29.20
2018-10-09T12:31:53.516Z,28.40
2018-10-09T12:36:57.586Z,26.40
2018-10-09T12:42:01.667Z,27.60
2018-10-09T12:47:05.760Z,29.90
2018-10-09T12:52:09.773Z,28.80
2018-10-09T12:57:13.926Z,31.00
2018-10-09T13:02:18.010Z,31.70
2018-10-09T13:07:22.060Z,31.00
2018-10-09T13:12:26.107Z,29.80
2018-10-09T13:17:30.223Z,30.40
2018-10-09T13:22:34.538Z,30.00
2018-10-09T13:27:38.312Z,30.50
2018-10-09T13:32:42.382Z,29.60
2018-10-09T13:37:46.443Z,29.80
2018-10-09T13:42:50.503Z,30.60
2018-10-09T13:47:54.574Z,30.00
2018-10-09T13:52:58.716Z,30.60
2018-10-09T13:58:02.866Z,30.20
2018-10-09T14:03:07.122Z,29.00
2018-10-09T14:08:12.026Z,28.10
2018-10-09T14:13:16.076Z,26.70
2018-10-09T14:18:20.119Z,26.70
2018-10-09T14:23:24.243Z,27.00
2018-10-09T14:28:28.324Z,26.60
2018-10-09T14:33:32.374Z,25.30
2018-10-09T14:38:36.484Z,24.60
2018-10-09T14:43:40.636Z,24.60
2018-10-09T14:48:44.691Z,24.00
2018-10-09T14:53:48.712Z,23.40
2018-10-09T14:58:52.759Z,24.20
2018-10-09T15:03:56.808Z,23.70
2018-10-09T15:09:00.880Z,23.80
2018-10-09T15:14:05.230Z,23.20
2018-10-09T15:19:09.381Z,23.00
2018-10-09T15:24:13.521Z,22.60
2018-10-09T15:29:17.600Z,22.00
2018-10-09T15:34:21.624Z,22.10
2018-10-09T15:39:25.691Z,21.90
2018-10-09T15:44:29.795Z,21.90
2018-10-09T15:49:33.800Z,21.50
2018-10-09T15:54:37.826Z,21.40
2018-10-09T15:59:41.875Z,21.00
2018-10-09T16:04:45.919Z,21.00
2018-10-09T16:09:49.972Z,21.10
2018-10-09T16:14:54.032Z,20.70
2018-10-09T16:19:58.098Z,20.50
2018-10-09T16:25:02.201Z,20.30
2018-10-09T16:30:06.304Z,20.00
2018-10-09T16:35:10.396Z,20.00
2018-10-09T16:40:14.645Z,19.90
2018-10-09T16:45:18.718Z,19.90
2018-10-09T16:50:22.777Z,19.80
2018-10-09T16:55:27.412Z,19.50
2018-10-09T17:00:31.645Z,19.30
2018-10-09T17:05:36.122Z,19.00
2018-10-09T17:10:40.204Z,18.80
2018-10-09T17:15:47.455Z,18.90
2018-10-09T17:20:51.639Z,18.80
2018-10-09T17:25:55.748Z,18.80
2018-10-09T17:30:59.931Z,18.70
2018-10-09T17:36:03.979Z,18.60
2018-10-09T17:41:08.113Z,18.50
2018-10-09T17:46:12.217Z,18.30
2018-10-09T17:51:16.365Z,18.20
2018-10-09T17:56:20.469Z,18.10
2018-10-09T18:01:24.578Z,17.80
2018-10-09T18:06:28.659Z,19.30
2018-10-09T18:11:32.718Z,17.60
2018-10-09T18:16:36.838Z,17.50
2018-10-09T18:21:40.947Z,17.50
2018-10-09T18:26:45.003Z,17.50
2018-10-09T18:31:49.087Z,17.40
2018-10-09T18:36:53.196Z,17.10
2018-10-09T18:41:57.252Z,17.10
2018-10-09T18:47:01.390Z,17.10
2018-10-09T18:52:05.668Z,16.90
2018-10-09T18:57:09.752Z,16.80
2018-10-09T19:02:13.872Z,16.80
2018-10-09T19:07:18.383Z,16.80
2018-10-09T19:12:22.471Z,16.80
2018-10-09T19:17:26.697Z,16.70
2018-10-09T19:22:30.964Z,16.70
2018-10-09T19:27:35.458Z,16.60
2018-10-09T19:32:39.605Z,16.50
2018-10-09T19:37:43.683Z,16.50
2018-10-09T19:42:48.146Z,16.40
2018-10-09T19:47:52.224Z,16.20
2018-10-09T19:52:57.216Z,16.20
2018-10-09T19:58:01.303Z,12.10
2018-10-09T20:03:05.393Z,16.10
2018-10-09T20:08:09.756Z,16.20
2018-10-09T20:13:14.198Z,16.20
2018-10-09T20:18:18.561Z,16.20
2018-10-09T20:23:22.792Z,16.10
2018-10-09T20:28:26.949Z,16.10
2018-10-09T20:33:31.611Z,16.00
2018-10-09T20:38:36.134Z,15.90
2018-10-09T20:43:40.310Z,15.90
2018-10-09T20:48:44.551Z,15.90
2018-10-09T20:53:48.648Z,15.80
2018-10-09T20:58:52.690Z,15.80
2018-10-09T21:03:56.760Z,15.30
2018-10-09T21:09:00.880Z,15.50
2018-10-09T21:14:05.608Z,15.50
2018-10-09T21:19:09.721Z,15.60
2018-10-09T21:24:13.727Z,15.60
2018-10-09T21:29:17.903Z,15.50
2018-10-09T21:34:21.956Z,15.50
2018-10-09T21:39:26.058Z,15.50
2018-10-09T21:44:30.139Z,15.40
2018-10-09T21:49:39.812Z,15.20
2018-10-09T21:54:49.180Z,15.40
2018-10-09T21:59:58.772Z,15.30
2018-10-09T22:05:08.983Z,15.30
2018-10-09T22:10:18.472Z,15.00
2018-10-09T22:15:27.812Z,15.20
2018-10-09T22:20:37.460Z,15.20
2018-10-09T22:25:47.191Z,15.20
2018-10-09T22:30:56.798Z,15.20
2018-10-09T22:36:06.486Z,15.10
2018-10-09T22:41:17.467Z,15.10
2018-10-09T22:46:27.082Z,15.10
2018-10-09T22:51:36.516Z,15.10
2018-10-09T22:56:45.930Z,15.00
2018-10-09T23:01:55.422Z,15.00
2018-10-09T23:07:05.316Z,14.90
2018-10-09T23:12:14.895Z,14.90
2018-10-09T23:17:24.606Z,14.90
2018-10-09T23:22:34.324Z,14.80
2018-10-09T23:27:43.703Z,14.80
2018-10-09T23:32:53.225Z,14.80
2018-10-09T23:38:02.582Z,14.70
2018-10-09T23:43:12.514Z,14.70
2018-10-09T23:48:21.952Z,14.70
2018-10-09T23:53:31.323Z,14.60
2018-10-09T23:58:40.731Z,14.60
